Time;durP1;ratioP1;P1;durP2;ratioP2;P2;SDS_P1;SDS_P2;PMS_P1;PMS_P2;Temp;Humidity;BMP_temperature;BMP_pressure;BME280_temperature;BME280_humidity;BME280_pressure;Samples;Min_cycle;Max_cycle;Signal;HPM_P1;HPM_P2
2023/02/20 00:00:05;;;;;;;4.30;3.90;;;;;;;;;;517024;28;1975;-77
2023/02/20 00:00:25;;;;;;;4.20;3.80;;;;;;;;;;518184;28;1035;-77
2023/02/20 00:00:40;;;;;;;4.65;4.10;;;;;;;;;;518172;28;1984;-76
2023/02/20 00:00:59;;;;;;;4.97;4.33;;;;;;;;;;518995;28;1555;-77
2023/02/20 00:01:14;;;;;;;5.20;4.40;;;;;;;;;;520040;28;1396;-77
2023/02/20 00:01:31;;;;;;;5.18;4.10;;;;;;;;;;521974;28;1368;-77
2023/02/20 00:01:49;;;;;;;4.53;3.90;;;;;;;;;;522056;28;1347;-77
2023/02/20 00:02:06;;;;;;;4.32;3.67;;;;;;;;;;522336;28;1666;-77
2023/02/20 00:02:22;;;;;;;5.15;3.90;;;;;;;;;;518189;28;1466;-77
2023/02/20 00:02:37;;;;;;;4.53;3.90;;;;;;;;;;515862;28;1422;-76
2023/02/20 00:02:53;;;;;;;4.13;3.73;;;;;;;;;;515461;28;1219;-77
2023/02/20 00:03:09;;;;;;;4.82;3.80;;;;;;;;;;514333;28;1342;-76
2023/02/20 00:03:26;;;;;;;4.53;3.65;;;;;;;;;;512559;28;1366;-77
2023/02/20 00:03:45;;;;;;;4.20;3.70;;;;;;;;;;515294;28;1728;-77
2023/02/20 00:04:03;;;;;;;5.05;3.90;;;;;;;;;;517683;28;1375;-77
2023/02/20 00:04:21;;;;;;;4.10;3.70;;;;;;;;;;519187;28;1390;-77
2023/02/20 00:04:37;;;;;;;4.20;3.63;;;;;;;;;;520086;28;1437;-76
2023/02/20 00:04:52;;;;;;;4.53;3.60;;;;;;;;;;520443;28;1384;-77
2023/02/20 00:05:07;;;;;;;4.13;3.53;;;;;;;;;;520263;28;1368;-77
2023/02/20 00:05:23;;;;;;;4.00;3.60;;;;;;;;;;520899;28;1527;-76
2023/02/20 00:05:38;;;;;;;4.10;3.70;;;;;;;;;;517196;28;1379;-77
2023/02/20 00:05:54;;;;;;;3.83;3.53;;;;;;;;;;518146;28;1248;-77
2023/02/20 00:06:09;;;;;;;4.10;3.70;;;;;;;;;;517722;28;1380;-77
2023/02/20 00:06:24;;;;;;;4.53;4.00;;;;;;;;;;518075;28;1517;-77
2023/02/20 00:06:40;;;;;;;5.05;4.43;;;;;;;;;;515723;28;1392;-77
2023/02/20 00:06:55;;;;;;;4.87;4.33;;;;;;;;;;517163;28;1775;-77
2023/02/20 00:07:13;;;;;;;4.80;3.80;;;;;;;;;;517210;28;1174;-77
2023/02/20 00:07:28;;;;;;;4.75;3.92;;;;;;;;;;515903;28;1405;-77
2023/02/20 00:07:44;;;;;;;5.27;4.27;;;;;;;;;;514226;28;1410;-77
2023/02/20 00:07:59;;;;;;;4.72;4.20;;;;;;;;;;515314;28;1350;-77
2023/02/20 00:08:14;;;;;;;4.60;4.20;;;;;;;;;;516097;28;1488;-77
2023/02/20 00:08:32;;;;;;;5.07;4.30;;;;;;;;;;518664;28;1726;-77
2023/02/20 00:08:47;;;;;;;5.20;4.30;;;;;;;;;;519155;28;1392;-77
2023/02/20 00:09:03;;;;;;;5.38;4.10;;;;;;;;;;517121;28;1420;-77
2023/02/20 00:09:18;;;;;;;5.27;4.27;;;;;;;;;;515689;28;1319;-77
2023/02/20 00:09:33;;;;;;;5.10;4.40;;;;;;;;;;517067;28;1291;-77
2023/02/20 00:09:49;;;;;;;5.33;4.20;;;;;;;;;;517526;28;1229;-76
2023/02/20 00:10:05;;;;;;;5.93;4.43;;;;;;;;;;516036;28;1626;-77
2023/02/20 00:10:23;;;;;;;5.57;4.50;;;;;;;;;;515461;28;1366;-76
2023/02/20 00:10:39;;;;;;;5.70;4.28;;;;;;;;;;520162;28;1259;-77
2023/02/20 00:10:54;;;;;;;6.23;4.33;;;;;;;;;;518429;28;1259;-77
2023/02/20 00:11:09;;;;;;;5.63;4.37;;;;;;;;;;518583;28;1428;-76
2023/02/20 00:11:27;;;;;;;5.88;4.43;;;;;;;;;;521991;28;1345;-76
2023/02/20 00:11:42;;;;;;;5.90;4.20;;;;;;;;;;520808;28;1646;-77
2023/02/20 00:11:58;;;;;;;5.90;4.25;;;;;;;;;;521077;28;1252;-77
2023/02/20 00:12:13;;;;;;;5.37;4.50;;;;;;;;;;521371;28;1355;-76
2023/02/20 00:12:28;;;;;;;4.80;4.40;;;;;;;;;;517740;28;1477;-76
2023/02/20 00:12:44;;;;;;;5.00;4.50;;;;;;;;;;515735;28;1382;-76
2023/02/20 00:13:02;;;;;;;5.43;4.55;;;;;;;;;;516060;28;1330;-77
2023/02/20 00:13:17;;;;;;;5.38;4.53;;;;;;;;;;517471;28;1687;-77
2023/02/20 00:13:35;;;;;;;4.95;4.38;;;;;;;;;;520155;28;1368;-76
2023/02/20 00:13:50;;;;;;;6.70;4.50;;;;;;;;;;516173;28;1505;-76
2023/02/20 00:14:05;;;;;;;6.75;4.57;;;;;;;;;;518232;28;1432;-76
2023/02/20 00:14:23;;;;;;;4.80;4.30;;;;;;;;;;516842;28;1400;-76
2023/02/20 00:14:38;;;;;;;4.90;4.28;;;;;;;;;;520334;28;1423;-76
2023/02/20 00:14:54;;;;;;;5.27;4.20;;;;;;;;;;520704;28;1714;-76
2023/02/20 00:15:14;;;;;;;4.82;4.20;;;;;;;;;;521874;28;1435;-76
2023/02/20 00:15:30;;;;;;;6.20;4.65;;;;;;;;;;522615;28;1400;-76
2023/02/20 00:15:45;;;;;;;6.40;4.80;;;;;;;;;;519307;28;1306;-77
2023/02/20 00:16:00;;;;;;;5.53;4.45;;;;;;;;;;519648;28;1409;-77
2023/02/20 00:16:16;;;;;;;5.63;4.50;;;;;;;;;;520356;28;1444;-76
2023/02/20 00:16:31;;;;;;;5.13;4.47;;;;;;;;;;521849;28;1657;-76
2023/02/20 00:16:47;;;;;;;4.90;4.30;;;;;;;;;;519083;28;1378;-77
2023/02/20 00:17:02;;;;;;;5.13;4.40;;;;;;;;;;517489;28;1493;-77
2023/02/20 00:17:17;;;;;;;5.63;4.70;;;;;;;;;;518512;28;1416;-77
2023/02/20 00:17:35;;;;;;;6.07;4.70;;;;;;;;;;518397;28;1447;-77
2023/02/20 00:17:51;;;;;;;7.18;4.82;;;;;;;;;;517986;28;1387;-77
2023/02/20 00:18:07;;;;;;;7.60;4.80;;;;;;;;;;519968;28;1778;-77
2023/02/20 00:18:22;;;;;;;6.13;4.45;;;;;;;;;;518957;28;1446;-77
2023/02/20 00:18:37;;;;;;;6.70;4.80;;;;;;;;;;516076;28;1393;-76
2023/02/20 00:18:53;;;;;;;6.60;5.07;;;;;;;;;;517277;28;1476;-77
2023/02/20 00:19:08;;;;;;;5.68;4.70;;;;;;;;;;517427;28;1402;-77
2023/02/20 00:19:26;;;;;;;5.10;4.60;;;;;;;;;;519639;28;1177;-77
2023/02/20 00:19:41;;;;;;;5.10;4.60;;;;;;;;;;521514;28;1523;-76
2023/02/20 00:19:56;;;;;;;5.20;4.37;;;;;;;;;;521029;28;1922;-77
2023/02/20 00:20:17;;;;;;;6.40;4.40;;;;;;;;;;521902;28;1515;-77
2023/02/20 00:20:33;;;;;;;5.82;4.38;;;;;;;;;;521322;28;1454;-76
2023/02/20 00:20:48;;;;;;;5.68;4.32;;;;;;;;;;519930;28;1451;-77
2023/02/20 00:21:05;;;;;;;5.70;4.50;;;;;;;;;;521996;28;1350;-77
2023/02/20 00:21:20;;;;;;;5.85;4.55;;;;;;;;;;518686;28;2693;-76
2023/02/20 00:21:37;;;;;;;5.87;4.30;;;;;;;;;;521075;28;1454;-77
2023/02/20 00:21:53;;;;;;;5.90;4.05;;;;;;;;;;516580;28;1286;-77
2023/02/20 00:22:08;;;;;;;5.47;4.00;;;;;;;;;;520582;28;1592;-76
2023/02/20 00:22:25;;;;;;;4.80;3.92;;;;;;;;;;518484;28;1392;-77
2023/02/20 00:22:43;;;;;;;5.53;4.05;;;;;;;;;;518883;28;1353;-77
2023/02/20 00:22:58;;;;;;;5.38;3.88;;;;;;;;;;521883;28;1705;-77
2023/02/20 00:23:14;;;;;;;4.40;3.80;;;;;;;;;;523876;28;1481;-76
2023/02/20 00:23:31;;;;;;;4.60;4.00;;;;;;;;;;520916;28;1348;-76
2023/02/20 00:23:47;;;;;;;5.65;4.10;;;;;;;;;;522946;28;1397;-77
2023/02/20 00:24:05;;;;;;;5.93;4.17;;;;;;;;;;520783;28;1210;-76
2023/02/20 00:24:23;;;;;;;5.28;4.07;;;;;;;;;;520695;28;1330;-77
2023/02/20 00:24:38;;;;;;;4.88;4.05;;;;;;;;;;519131;28;1571;-77
2023/02/20 00:24:53;;;;;;;5.60;3.85;;;;;;;;;;520177;28;1448;-77
2023/02/20 00:25:09;;;;;;;5.37;3.80;;;;;;;;;;521991;28;1249;-77
2023/02/20 00:25:24;;;;;;;5.68;4.18;;;;;;;;;;522123;28;1416;-77
2023/02/20 00:25:40;;;;;;;5.87;4.20;;;;;;;;;;519530;28;1406;-77
2023/02/20 00:25:55;;;;;;;5.40;4.03;;;;;;;;;;517645;28;1446;-76
2023/02/20 00:26:12;;;;;;;5.13;3.97;;;;;;;;;;518338;28;1644;-76
2023/02/20 00:26:28;;;;;;;4.32;3.83;;;;;;;;;;516035;28;1363;-77
2023/02/20 00:26:48;;;;;;;4.20;3.80;;;;;;;;;;516544;28;1311;-77
2023/02/20 00:27:04;;;;;;;4.70;3.95;;;;;;;;;;516078;28;1171;-77
2023/02/20 00:27:19;;;;;;;4.70;4.00;;;;;;;;;;514750;28;1309;-77
2023/02/20 00:27:37;;;;;;;4.60;4.10;;;;;;;;;;516008;28;1309;-76
2023/02/20 00:27:52;;;;;;;4.90;4.10;;;;;;;;;;517751;28;1550;-77
2023/02/20 00:28:07;;;;;;;4.82;4.10;;;;;;;;;;518422;28;1496;-77
2023/02/20 00:28:30;;;;;;;5.10;4.03;;;;;;;;;;518550;28;1468;-76
2023/02/20 00:28:48;;;;;;;4.30;3.70;;;;;;;;;;519264;28;1295;-77
2023/02/20 00:29:03;;;;;;;4.18;3.78;;;;;;;;;;519303;28;1453;-77
2023/02/20 00:29:23;;;;;;;4.33;3.73;;;;;;;;;;517611;28;1772;-77
2023/02/20 00:29:39;;;;;;;4.55;3.75;;;;;;;;;;518817;28;1594;-77
2023/02/20 00:29:54;;;;;;;5.13;4.15;;;;;;;;;;516662;28;1320;-76
2023/02/20 00:30:16;;;;;;;5.43;4.13;;;;;;;;;;517815;28;1259;-77
2023/02/20 00:30:35;;;;;;;5.22;3.88;;;;;;;;;;520610;28;1320;-76
2023/02/20 00:30:50;;;;;;;4.65;3.92;;;;;;;;;;522047;28;1298;-77
2023/02/20 00:31:06;;;;;;;5.13;4.27;;;;;;;;;;521898;28;1749;-77
2023/02/20 00:31:22;;;;;;;5.43;4.30;;;;;;;;;;522628;28;1390;-77
2023/02/20 00:31:37;;;;;;;5.15;4.13;;;;;;;;;;522753;28;1224;-77
2023/02/20 00:31:55;;;;;;;4.97;4.33;;;;;;;;;;518675;28;1250;-77
2023/02/20 00:32:11;;;;;;;5.72;4.60;;;;;;;;;;521308;28;1286;-77
2023/02/20 00:32:26;;;;;;;5.53;4.45;;;;;;;;;;521208;28;1221;-77
2023/02/20 00:32:42;;;;;;;5.33;4.30;;;;;;;;;;521502;28;1737;-77
2023/02/20 00:32:57;;;;;;;6.30;4.47;;;;;;;;;;518951;28;1298;-77
2023/02/20 00:33:13;;;;;;;6.23;4.70;;;;;;;;;;515173;28;1207;-76
2023/02/20 00:33:30;;;;;;;5.40;4.70;;;;;;;;;;515155;28;1155;-77
2023/02/20 00:33:45;;;;;;;5.85;4.60;;;;;;;;;;516639;28;1496;-77
2023/02/20 00:34:00;;;;;;;6.03;4.70;;;;;;;;;;516414;28;1528;-77
2023/02/20 00:34:16;;;;;;;5.45;4.70;;;;;;;;;;514680;28;1689;-77
2023/02/20 00:34:31;;;;;;;5.13;4.60;;;;;;;;;;519272;28;1486;-77
2023/02/20 00:34:47;;;;;;;5.75;4.70;;;;;;;;;;517194;28;1197;-77
2023/02/20 00:35:02;;;;;;;5.97;4.80;;;;;;;;;;519192;28;1463;-77
2023/02/20 00:35:18;;;;;;;5.83;4.70;;;;;;;;;;517672;28;1241;-77
2023/02/20 00:35:33;;;;;;;6.03;4.72;;;;;;;;;;515716;28;1325;-77
2023/02/20 00:35:49;;;;;;;5.63;4.93;;;;;;;;;;517403;28;1649;-77
2023/02/20 00:36:04;;;;;;;5.97;4.93;;;;;;;;;;514858;28;1233;-77
2023/02/20 00:36:20;;;;;;;6.55;4.90;;;;;;;;;;513923;28;1379;-77
2023/02/20 00:36:35;;;;;;;6.80;5.00;;;;;;;;;;513508;28;1497;-77
2023/02/20 00:36:51;;;;;;;6.40;4.90;;;;;;;;;;513859;28;1233;-77
2023/02/20 00:37:07;;;;;;;5.90;4.87;;;;;;;;;;515040;28;1459;-77
2023/02/20 00:37:23;;;;;;;5.55;4.82;;;;;;;;;;517466;28;1715;-77
2023/02/20 00:37:38;;;;;;;5.50;4.60;;;;;;;;;;521712;28;1575;-77
2023/02/20 00:37:54;;;;;;;5.93;4.72;;;;;;;;;;520615;28;1387;-77
2023/02/20 00:38:09;;;;;;;6.00;4.90;;;;;;;;;;519219;28;1304;-77
2023/02/20 00:38:25;;;;;;;6.43;4.97;;;;;;;;;;516167;28;1433;-77
2023/02/20 00:38:43;;;;;;;6.87;5.03;;;;;;;;;;518267;28;1382;-77
2023/02/20 00:38:58;;;;;;;6.72;5.18;;;;;;;;;;517794;28;1641;-77
2023/02/20 00:39:14;;;;;;;5.88;5.03;;;;;;;;;;516724;28;1351;-77
2023/02/20 00:39:31;;;;;;;5.87;4.83;;;;;;;;;;517414;28;1332;-77
2023/02/20 00:39:46;;;;;;;6.93;4.82;;;;;;;;;;516073;28;1429;-77
2023/02/20 00:40:01;;;;;;;6.03;4.97;;;;;;;;;;517811;28;1973;-77
2023/02/20 00:40:18;;;;;;;6.03;5.10;;;;;;;;;;518380;28;1306;-77
2023/02/20 00:40:33;;;;;;;6.47;4.93;;;;;;;;;;519291;28;1710;-77
2023/02/20 00:40:49;;;;;;;6.70;5.00;;;;;;;;;;516691;28;1198;-77
2023/02/20 00:41:04;;;;;;;6.20;5.00;;;;;;;;;;517717;28;1455;-77
2023/02/20 00:41:21;;;;;;;6.38;4.80;;;;;;;;;;514872;28;1421;-77
2023/02/20 00:41:37;;;;;;;7.03;5.03;;;;;;;;;;516915;28;1377;-77
2023/02/20 00:41:54;;;;;;;6.78;5.03;;;;;;;;;;515092;28;1324;-77
2023/02/20 00:42:10;;;;;;;7.90;4.95;;;;;;;;;;516920;28;1513;-77
2023/02/20 00:42:27;;;;;;;7.43;4.90;;;;;;;;;;516869;28;1366;-77
2023/02/20 00:42:43;;;;;;;6.03;4.80;;;;;;;;;;516600;28;1288;-77
2023/02/20 00:42:58;;;;;;;6.18;4.80;;;;;;;;;;514300;28;1200;-77
2023/02/20 00:43:14;;;;;;;6.20;4.80;;;;;;;;;;517915;28;1440;-77
2023/02/20 00:43:30;;;;;;;5.17;4.63;;;;;;;;;;518293;28;1121;-77
2023/02/20 00:43:45;;;;;;;4.88;4.38;;;;;;;;;;517726;28;1777;-77
2023/02/20 00:44:01;;;;;;;5.50;4.53;;;;;;;;;;517942;28;1305;-77
2023/02/20 00:44:16;;;;;;;5.97;4.78;;;;;;;;;;520320;28;1293;-76
2023/02/20 00:44:32;;;;;;;6.00;4.90;;;;;;;;;;522254;28;1381;-77
2023/02/20 00:44:47;;;;;;;6.00;4.95;;;;;;;;;;520070;28;1555;-77
2023/02/20 00:45:03;;;;;;;6.43;4.90;;;;;;;;;;516469;28;1235;-77
2023/02/20 00:45:19;;;;;;;6.18;4.93;;;;;;;;;;517825;28;1200;-77
2023/02/20 00:45:35;;;;;;;6.10;4.97;;;;;;;;;;515382;28;1176;-77
2023/02/20 00:45:50;;;;;;;6.05;4.80;;;;;;;;;;517300;28;1412;-77
2023/02/20 00:46:06;;;;;;;5.93;4.90;;;;;;;;;;517615;28;1338;-77
2023/02/20 00:46:21;;;;;;;6.25;4.80;;;;;;;;;;517618;28;1259;-77
2023/02/20 00:46:39;;;;;;;5.93;4.57;;;;;;;;;;516928;28;1469;-77
2023/02/20 00:46:54;;;;;;;5.35;4.38;;;;;;;;;;516238;28;1414;-77
2023/02/20 00:47:09;;;;;;;5.07;4.30;;;;;;;;;;517592;28;2076;-77
2023/02/20 00:47:25;;;;;;;5.33;4.60;;;;;;;;;;517902;28;1307;-77
2023/02/20 00:47:40;;;;;;;5.53;4.80;;;;;;;;;;518192;28;1264;-77
2023/02/20 00:47:55;;;;;;;6.43;4.80;;;;;;;;;;518793;28;1427;-77
2023/02/20 00:48:11;;;;;;;5.83;4.70;;;;;;;;;;519453;28;1511;-77
2023/02/20 00:48:26;;;;;;;4.88;4.43;;;;;;;;;;516856;28;1329;-77
2023/02/20 00:48:42;;;;;;;5.03;4.53;;;;;;;;;;518604;28;1560;-77
2023/02/20 00:48:58;;;;;;;5.15;4.53;;;;;;;;;;518430;28;1576;-77
2023/02/20 00:49:13;;;;;;;5.77;4.67;;;;;;;;;;519974;28;1388;-77
2023/02/20 00:49:28;;;;;;;5.93;4.87;;;;;;;;;;520324;28;1452;-77
2023/02/20 00:49:44;;;;;;;6.37;4.70;;;;;;;;;;518131;28;1469;-77
2023/02/20 00:49:59;;;;;;;6.40;4.80;;;;;;;;;;516952;28;1290;-77
2023/02/20 00:50:16;;;;;;;6.00;4.90;;;;;;;;;;517972;28;1617;-77
2023/02/20 00:50:32;;;;;;;6.43;4.75;;;;;;;;;;519052;28;1282;-77
2023/02/20 00:50:47;;;;;;;7.13;4.80;;;;;;;;;;520149;28;1385;-76
2023/02/20 00:51:02;;;;;;;7.43;4.97;;;;;;;;;;520599;28;1092;-77
2023/02/20 00:51:20;;;;;;;6.07;4.82;;;;;;;;;;520593;28;1333;-77
2023/02/20 00:51:35;;;;;;;6.47;4.70;;;;;;;;;;520091;28;1270;-78
2023/02/20 00:51:51;;;;;;;6.82;4.57;;;;;;;;;;520353;28;1353;-77
2023/02/20 00:52:06;;;;;;;6.37;4.97;;;;;;;;;;519937;28;1530;-77
2023/02/20 00:52:22;;;;;;;6.65;4.97;;;;;;;;;;520226;28;1412;-76
2023/02/20 00:52:38;;;;;;;6.77;4.70;;;;;;;;;;516754;28;1379;-77
2023/02/20 00:52:53;;;;;;;6.53;4.75;;;;;;;;;;516083;28;1424;-77
2023/02/20 00:53:09;;;;;;;5.33;4.70;;;;;;;;;;516397;28;1354;-77
2023/02/20 00:53:24;;;;;;;5.83;4.50;;;;;;;;;;518322;28;1641;-77
2023/02/20 00:53:39;;;;;;;6.00;4.50;;;;;;;;;;520536;28;1461;-77
2023/02/20 00:53:55;;;;;;;5.60;4.80;;;;;;;;;;518185;28;1266;-77
2023/02/20 00:54:10;;;;;;;6.67;5.10;;;;;;;;;;519770;28;1261;-77
2023/02/20 00:54:27;;;;;;;7.10;5.05;;;;;;;;;;521009;28;1410;-77
2023/02/20 00:54:43;;;;;;;7.10;4.75;;;;;;;;;;519359;28;1441;-77
2023/02/20 00:54:58;;;;;;;7.00;4.63;;;;;;;;;;517399;28;1712;-77
2023/02/20 00:55:13;;;;;;;5.57;4.63;;;;;;;;;;517954;28;1320;-76
2023/02/20 00:55:29;;;;;;;5.80;4.53;;;;;;;;;;517618;28;1180;-77
2023/02/20 00:55:44;;;;;;;7.03;4.80;;;;;;;;;;518843;28;1539;-76
2023/02/20 00:55:59;;;;;;;7.13;5.00;;;;;;;;;;519045;28;1573;-77
2023/02/20 00:56:15;;;;;;;6.50;4.90;;;;;;;;;;518730;28;1396;-76
2023/02/20 00:56:30;;;;;;;6.70;4.90;;;;;;;;;;518863;28;1495;-76
2023/02/20 00:56:45;;;;;;;6.53;4.90;;;;;;;;;;515015;28;1943;-77
2023/02/20 00:57:01;;;;;;;5.87;5.00;;;;;;;;;;514966;28;1208;-77
2023/02/20 00:57:16;;;;;;;5.53;4.93;;;;;;;;;;518022;28;1121;-77
2023/02/20 00:57:31;;;;;;;5.17;4.67;;;;;;;;;;517846;28;1208;-77
2023/02/20 00:57:47;;;;;;;6.20;4.63;;;;;;;;;;520018;28;1198;-77
2023/02/20 00:58:02;;;;;;;6.78;4.97;;;;;;;;;;519555;28;1737;-77
2023/02/20 00:58:17;;;;;;;7.33;5.27;;;;;;;;;;517824;28;1349;-77
2023/02/20 00:58:33;;;;;;;7.43;5.23;;;;;;;;;;517923;28;1339;-77
2023/02/20 00:58:48;;;;;;;6.38;5.10;;;;;;;;;;514675;28;1299;-77
2023/02/20 00:59:03;;;;;;;6.27;5.20;;;;;;;;;;517899;28;1279;-77
2023/02/20 00:59:19;;;;;;;7.00;5.40;;;;;;;;;;519400;28;1195;-76
2023/02/20 00:59:34;;;;;;;7.63;5.20;;;;;;;;;;517631;28;1282;-77
2023/02/20 00:59:50;;;;;;;8.10;5.00;;;;;;;;;;512257;28;1315;-76
2023/02/20 01:00:11;;;;;;;7.07;5.18;;;;;;;;;;517183;28;1926;-77
2023/02/20 01:00:28;;;;;;;6.30;5.30;;;;;;;;;;519559;28;1295;-77
2023/02/20 01:00:44;;;;;;;5.95;5.15;;;;;;;;;;518347;28;1320;-77
2023/02/20 01:00:59;;;;;;;6.83;5.13;;;;;;;;;;517286;28;1361;-77
2023/02/20 01:01:15;;;;;;;7.33;5.17;;;;;;;;;;519359;28;1283;-77
2023/02/20 01:01:31;;;;;;;6.07;5.10;;;;;;;;;;521077;28;1203;-77
2023/02/20 01:01:46;;;;;;;6.05;5.30;;;;;;;;;;518452;28;1215;-76
2023/02/20 01:02:01;;;;;;;7.18;5.32;;;;;;;;;;517925;28;1345;-76
2023/02/20 01:02:17;;;;;;;7.73;5.43;;;;;;;;;;518136;28;1168;-77
2023/02/20 01:02:32;;;;;;;6.80;5.23;;;;;;;;;;517704;28;1451;-77
2023/02/20 01:02:48;;;;;;;6.43;5.10;;;;;;;;;;519517;28;1294;-76
2023/02/20 01:03:03;;;;;;;6.87;5.30;;;;;;;;;;518051;28;1428;-76
2023/02/20 01:03:18;;;;;;;6.47;5.30;;;;;;;;;;516161;28;1293;-77
2023/02/20 01:03:34;;;;;;;7.00;5.30;;;;;;;;;;522206;28;1175;-77
2023/02/20 01:03:49;;;;;;;7.67;5.00;;;;;;;;;;522281;28;1409;-76
2023/02/20 01:04:07;;;;;;;6.88;5.10;;;;;;;;;;520374;28;1376;-77
2023/02/20 01:04:23;;;;;;;7.15;5.22;;;;;;;;;;516780;28;1201;-77
2023/02/20 01:04:38;;;;;;;7.07;4.80;;;;;;;;;;517414;28;1218;-77
2023/02/20 01:04:55;;;;;;;6.15;4.90;;;;;;;;;;518010;28;1427;-77
2023/02/20 01:05:10;;;;;;;5.35;4.85;;;;;;;;;;517736;28;1434;-77
2023/02/20 01:05:26;;;;;;;5.40;4.60;;;;;;;;;;517970;28;1176;-77
2023/02/20 01:05:41;;;;;;;6.40;4.83;;;;;;;;;;516388;28;1207;-77
2023/02/20 01:05:57;;;;;;;7.22;4.97;;;;;;;;;;520449;28;1257;-77
2023/02/20 01:06:12;;;;;;;7.03;4.90;;;;;;;;;;517158;28;1625;-77
2023/02/20 01:06:28;;;;;;;6.68;4.90;;;;;;;;;;519805;28;1366;-77
2023/02/20 01:06:43;;;;;;;6.60;4.90;;;;;;;;;;517837;28;1318;-76
2023/02/20 01:06:59;;;;;;;6.03;4.82;;;;;;;;;;519786;28;1280;-77
2023/02/20 01:07:14;;;;;;;6.83;4.93;;;;;;;;;;516327;28;1245;-77
2023/02/20 01:07:30;;;;;;;6.05;4.85;;;;;;;;;;515971;28;1307;-77
2023/02/20 01:07:45;;;;;;;6.93;4.90;;;;;;;;;;517679;28;1181;-77
2023/02/20 01:08:00;;;;;;;7.55;4.82;;;;;;;;;;520537;28;1416;-77
2023/02/20 01:08:16;;;;;;;6.40;4.60;;;;;;;;;;518529;28;1233;-76
2023/02/20 01:08:31;;;;;;;6.37;4.83;;;;;;;;;;520585;28;1279;-77
2023/02/20 01:08:46;;;;;;;6.07;4.95;;;;;;;;;;518390;28;1244;-77
2023/02/20 01:09:02;;;;;;;6.00;4.90;;;;;;;;;;519741;28;1388;-77
2023/02/20 01:09:17;;;;;;;5.55;4.80;;;;;;;;;;521840;28;1397;-76
2023/02/20 01:09:32;;;;;;;6.00;4.60;;;;;;;;;;522397;28;1133;-77
2023/02/20 01:09:48;;;;;;;7.00;4.53;;;;;;;;;;518849;28;1217;-76
2023/02/20 01:10:04;;;;;;;6.47;4.70;;;;;;;;;;517103;28;1378;-77
2023/02/20 01:10:19;;;;;;;5.95;4.80;;;;;;;;;;517806;28;1442;-77
2023/02/20 01:10:34;;;;;;;5.63;4.97;;;;;;;;;;517550;28;1302;-77
2023/02/20 01:10:50;;;;;;;5.87;5.10;;;;;;;;;;517629;28;1483;-77
2023/02/20 01:11:05;;;;;;;6.03;5.00;;;;;;;;;;516972;28;1326;-77
2023/02/20 01:11:21;;;;;;;5.80;5.00;;;;;;;;;;517552;28;1131;-77
2023/02/20 01:11:37;;;;;;;5.70;4.97;;;;;;;;;;514766;28;1212;-77
2023/02/20 01:11:53;;;;;;;6.50;4.83;;;;;;;;;;516496;28;1572;-76
2023/02/20 01:12:09;;;;;;;6.80;4.82;;;;;;;;;;513548;28;1247;-77
2023/02/20 01:12:24;;;;;;;6.32;4.70;;;;;;;;;;514998;28;1514;-77
2023/02/20 01:12:39;;;;;;;6.43;4.77;;;;;;;;;;515395;28;1376;-77
2023/02/20 01:12:55;;;;;;;6.37;4.90;;;;;;;;;;515179;28;1337;-76
2023/02/20 01:13:10;;;;;;;6.10;4.85;;;;;;;;;;516204;28;1364;-77
2023/02/20 01:13:25;;;;;;;6.50;4.80;;;;;;;;;;517293;28;1370;-77
2023/02/20 01:13:41;;;;;;;6.43;4.80;;;;;;;;;;520058;28;1354;-77
2023/02/20 01:13:56;;;;;;;5.63;4.80;;;;;;;;;;518298;28;1091;-76
2023/02/20 01:14:12;;;;;;;6.40;4.90;;;;;;;;;;523566;28;1469;-76
2023/02/20 01:14:28;;;;;;;6.70;4.78;;;;;;;;;;523136;28;1263;-77
2023/02/20 01:14:43;;;;;;;5.37;4.60;;;;;;;;;;521767;28;1195;-77
2023/02/20 01:14:58;;;;;;;5.43;4.70;;;;;;;;;;521239;28;1364;-77
2023/02/20 01:15:15;;;;;;;6.03;4.65;;;;;;;;;;518031;28;1438;-77
2023/02/20 01:15:30;;;;;;;6.68;4.65;;;;;;;;;;517460;28;1407;-77
2023/02/20 01:15:45;;;;;;;7.00;4.97;;;;;;;;;;515057;28;1240;-77
2023/02/20 01:16:01;;;;;;;5.78;4.90;;;;;;;;;;519917;28;1281;-77
2023/02/20 01:16:16;;;;;;;5.70;5.00;;;;;;;;;;522329;28;1223;-76
2023/02/20 01:16:31;;;;;;;5.70;5.00;;;;;;;;;;520680;28;1271;-77
2023/02/20 01:16:50;;;;;;;5.33;4.80;;;;;;;;;;519510;28;1178;-77
2023/02/20 01:17:05;;;;;;;5.93;4.97;;;;;;;;;;516771;28;1288;-77
2023/02/20 01:17:20;;;;;;;6.05;5.10;;;;;;;;;;517119;28;1339;-77
2023/02/20 01:17:36;;;;;;;6.27;5.00;;;;;;;;;;513908;28;1244;-77
2023/02/20 01:17:51;;;;;;;6.97;5.20;;;;;;;;;;513856;28;1414;-77
2023/02/20 01:18:06;;;;;;;6.82;5.13;;;;;;;;;;517631;28;1308;-76
2023/02/20 01:18:22;;;;;;;6.00;4.90;;;;;;;;;;516682;28;1197;-78
2023/02/20 01:18:37;;;;;;;5.38;4.88;;;;;;;;;;518233;28;1345;-77
2023/02/20 01:18:53;;;;;;;5.80;4.70;;;;;;;;;;519206;28;1236;-75
2023/02/20 01:19:08;;;;;;;6.03;4.63;;;;;;;;;;519937;28;1261;-77
2023/02/20 01:19:23;;;;;;;5.80;4.72;;;;;;;;;;521383;28;1165;-77
2023/02/20 01:19:39;;;;;;;6.47;4.63;;;;;;;;;;522096;28;1349;-77
2023/02/20 01:19:54;;;;;;;6.22;4.60;;;;;;;;;;523513;28;1975;-77
2023/02/20 01:20:10;;;;;;;5.60;4.60;;;;;;;;;;518568;28;1321;-77
2023/02/20 01:20:25;;;;;;;5.90;4.80;;;;;;;;;;520892;28;1105;-77
2023/02/20 01:20:41;;;;;;;6.43;5.00;;;;;;;;;;519396;28;1353;-77
2023/02/20 01:20:56;;;;;;;6.15;4.97;;;;;;;;;;520174;28;1352;-77
2023/02/20 01:21:12;;;;;;;6.03;5.10;;;;;;;;;;521439;28;1436;-77
2023/02/20 01:21:27;;;;;;;6.63;5.07;;;;;;;;;;520370;28;1196;-77
2023/02/20 01:21:43;;;;;;;6.60;4.88;;;;;;;;;;520329;28;1306;-77
2023/02/20 01:21:59;;;;;;;5.50;4.80;;;;;;;;;;520118;28;1228;-77
2023/02/20 01:22:14;;;;;;;5.75;5.05;;;;;;;;;;521270;28;1365;-77
2023/02/20 01:22:29;;;;;;;6.60;5.20;;;;;;;;;;517360;28;1197;-76
2023/02/20 01:22:45;;;;;;;6.33;4.90;;;;;;;;;;520018;28;1388;-77
2023/02/20 01:23:00;;;;;;;5.88;4.88;;;;;;;;;;518029;28;1545;-78
2023/02/20 01:23:16;;;;;;;6.10;4.90;;;;;;;;;;516364;28;1360;-76
2023/02/20 01:23:31;;;;;;;6.20;4.90;;;;;;;;;;519897;28;1444;-77
2023/02/20 01:23:46;;;;;;;7.10;4.97;;;;;;;;;;519979;28;1485;-77
2023/02/20 01:24:02;;;;;;;7.33;5.10;;;;;;;;;;517720;28;1295;-77
2023/02/20 01:24:18;;;;;;;6.82;5.20;;;;;;;;;;519169;28;1586;-77
2023/02/20 01:24:33;;;;;;;6.10;5.00;;;;;;;;;;521403;28;1349;-77
2023/02/20 01:24:51;;;;;;;6.07;4.90;;;;;;;;;;521613;28;1283;-77
2023/02/20 01:25:06;;;;;;;6.72;4.95;;;;;;;;;;519626;28;1251;-77
2023/02/20 01:25:22;;;;;;;5.90;5.03;;;;;;;;;;515344;28;1190;-77
2023/02/20 01:25:37;;;;;;;5.70;5.10;;;;;;;;;;515822;28;1309;-77
2023/02/20 01:25:52;;;;;;;6.70;5.13;;;;;;;;;;518347;28;1185;-77
2023/02/20 01:26:08;;;;;;;7.13;5.15;;;;;;;;;;519596;28;1185;-77
2023/02/20 01:26:23;;;;;;;6.17;4.90;;;;;;;;;;521739;28;1429;-77
2023/02/20 01:26:43;;;;;;;5.47;4.70;;;;;;;;;;519559;28;1272;-77
2023/02/20 01:26:59;;;;;;;6.30;4.90;;;;;;;;;;521468;28;1410;-77
2023/02/20 01:27:14;;;;;;;6.03;4.83;;;;;;;;;;519163;28;1217;-77
2023/02/20 01:27:30;;;;;;;6.30;5.00;;;;;;;;;;519998;28;1346;-78
2023/02/20 01:27:45;;;;;;;6.33;4.97;;;;;;;;;;520575;28;1425;-76
2023/02/20 01:28:01;;;;;;;6.67;4.80;;;;;;;;;;519562;28;1229;-77
2023/02/20 01:28:16;;;;;;;7.03;4.85;;;;;;;;;;517359;28;1245;-77
2023/02/20 01:28:32;;;;;;;6.45;4.90;;;;;;;;;;516402;28;1260;-77
2023/02/20 01:28:48;;;;;;;6.40;5.00;;;;;;;;;;517419;28;1438;-77
2023/02/20 01:29:03;;;;;;;6.88;5.20;;;;;;;;;;516532;28;1514;-77
2023/02/20 01:29:19;;;;;;;6.70;5.20;;;;;;;;;;517445;28;1201;-77
2023/02/20 01:29:34;;;;;;;6.27;5.00;;;;;;;;;;517884;28;1055;-76
2023/02/20 01:29:49;;;;;;;7.18;4.82;;;;;;;;;;516369;28;1333;-77
2023/02/20 01:30:07;;;;;;;7.23;4.90;;;;;;;;;;518081;28;1356;-77
2023/02/20 01:30:23;;;;;;;6.13;4.88;;;;;;;;;;518499;28;1283;-77
2023/02/20 01:30:38;;;;;;;6.10;5.03;;;;;;;;;;517827;28;1472;-77
2023/02/20 01:30:53;;;;;;;6.10;5.18;;;;;;;;;;517731;28;1267;-77
2023/02/20 01:31:09;;;;;;;6.00;5.10;;;;;;;;;;514187;28;1237;-77
2023/02/20 01:31:24;;;;;;;6.53;5.00;;;;;;;;;;517617;28;1207;-77
2023/02/20 01:31:45;;;;;;;7.15;5.00;;;;;;;;;;516436;28;1292;-77
2023/02/20 01:32:00;;;;;;;7.07;4.75;;;;;;;;;;517626;28;1483;-77
2023/02/20 01:32:16;;;;;;;6.57;4.65;;;;;;;;;;517980;28;1399;-76
2023/02/20 01:32:31;;;;;;;6.43;4.78;;;;;;;;;;518512;28;1239;-77
2023/02/20 01:32:47;;;;;;;6.30;4.97;;;;;;;;;;517294;28;1212;-77
2023/02/20 01:33:02;;;;;;;6.10;4.90;;;;;;;;;;521548;28;1193;-77
2023/02/20 01:33:17;;;;;;;6.25;4.90;;;;;;;;;;519914;28;1325;-77
2023/02/20 01:33:33;;;;;;;5.93;4.90;;;;;;;;;;518837;28;1187;-77
2023/02/20 01:33:48;;;;;;;5.63;4.80;;;;;;;;;;519357;28;1417;-77
2023/02/20 01:34:04;;;;;;;6.13;4.80;;;;;;;;;;519381;28;1419;-77
2023/02/20 01:34:20;;;;;;;6.77;4.80;;;;;;;;;;521766;28;1414;-77
2023/02/20 01:34:35;;;;;;;6.20;4.95;;;;;;;;;;521832;28;1268;-77
2023/02/20 01:34:51;;;;;;;6.53;5.40;;;;;;;;;;519266;28;1506;-77
2023/02/20 01:35:06;;;;;;;6.30;5.40;;;;;;;;;;514223;28;1340;-77
2023/02/20 01:35:21;;;;;;;6.00;5.17;;;;;;;;;;513984;28;1157;-77
2023/02/20 01:35:37;;;;;;;5.93;4.90;;;;;;;;;;517767;28;1259;-77
2023/02/20 01:35:52;;;;;;;6.25;4.90;;;;;;;;;;517722;28;1296;-76
2023/02/20 01:36:08;;;;;;;6.27;5.10;;;;;;;;;;517881;28;1378;-76
2023/02/20 01:36:26;;;;;;;5.72;5.10;;;;;;;;;;521496;28;1394;-77
2023/02/20 01:36:48;;;;;;;6.85;5.25;;;;;;;;;;519361;28;1504;-77
2023/02/20 01:37:03;;;;;;;7.20;5.07;;;;;;;;;;519040;28;1267;-77
2023/02/20 01:37:19;;;;;;;6.13;5.00;;;;;;;;;;516988;28;1275;-77
2023/02/20 01:37:34;;;;;;;6.03;5.15;;;;;;;;;;517235;28;1350;-77
2023/02/20 01:37:49;;;;;;;5.70;4.80;;;;;;;;;;519660;28;1427;-77
2023/02/20 01:38:05;;;;;;;5.53;5.00;;;;;;;;;;519558;28;1197;-77